sensor_id;sensor_type;location;lat;lon;timestamp;P1;durP1;ratioP1;P2;durP2;ratioP2
56927;SDS011;60850;52.502;13.426;2023-12-20T00:02:04;6.78;;;4.60;;
56927;SDS011;60850;52.502;13.426;2023-12-20T00:04:30;7.32;;;4.60;;
56927;SDS011;60850;52.502;13.426;2023-12-20T00:06:57;7.03;;;4.32;;
56927;SDS011;60850;52.502;13.426;2023-12-20T00:09:25;6.80;;;4.18;;
56927;SDS011;60850;52.502;13.426;2023-12-20T00:11:52;6.55;;;4.25;;
56927;SDS011;60850;52.502;13.426;2023-12-20T00:14:18;6.57;;;4.18;;
56927;SDS011;60850;52.502;13.426;2023-12-20T00:16:47;6.80;;;3.80;;
56927;SDS011;60850;52.502;13.426;2023-12-20T00:19:14;4.97;;;3.85;;
56927;SDS011;60850;52.502;13.426;2023-12-20T00:21:41;6.60;;;4.07;;
56927;SDS011;60850;52.502;13.426;2023-12-20T00:24:08;6.43;;;4.57;;
56927;SDS011;60850;52.502;13.426;2023-12-20T00:26:35;8.40;;;4.90;;
56927;SDS011;60850;52.502;13.426;2023-12-20T00:29:01;6.18;;;3.38;;
56927;SDS011;60850;52.502;13.426;2023-12-20T00:31:29;5.80;;;3.88;;
56927;SDS011;60850;52.502;13.426;2023-12-20T00:33:57;5.70;;;3.80;;
56927;SDS011;60850;52.502;13.426;2023-12-20T00:36:24;6.47;;;3.70;;
56927;SDS011;60850;52.502;13.426;2023-12-20T00:38:51;4.93;;;3.42;;
56927;SDS011;60850;52.502;13.426;2023-12-20T00:41:18;4.80;;;3.50;;
56927;SDS011;60850;52.502;13.426;2023-12-20T00:43:45;5.95;;;3.80;;
56927;SDS011;60850;52.502;13.426;2023-12-20T00:46:12;4.40;;;3.30;;
56927;SDS011;60850;52.502;13.426;2023-12-20T00:48:39;6.60;;;3.45;;
56927;SDS011;60850;52.502;13.426;2023-12-20T00:51:09;5.40;;;3.50;;
56927;SDS011;60850;52.502;13.426;2023-12-20T00:53:35;6.78;;;3.80;;
56927;SDS011;60850;52.502;13.426;2023-12-20T00:56:03;5.65;;;3.95;;
56927;SDS011;60850;52.502;13.426;2023-12-20T00:58:30;5.28;;;3.83;;
56927;SDS011;60850;52.502;13.426;2023-12-20T01:00:57;7.65;;;3.67;;
56927;SDS011;60850;52.502;13.426;2023-12-20T01:03:24;6.82;;;3.83;;
56927;SDS011;60850;52.502;13.426;2023-12-20T01:05:51;5.20;;;4.13;;
56927;SDS011;60850;52.502;13.426;2023-12-20T01:08:20;4.57;;;3.42;;
56927;SDS011;60850;52.502;13.426;2023-12-20T01:10:47;5.65;;;3.60;;
56927;SDS011;60850;52.502;13.426;2023-12-20T01:13:14;5.72;;;3.90;;
56927;SDS011;60850;52.502;13.426;2023-12-20T01:15:41;6.40;;;4.03;;
56927;SDS011;60850;52.502;13.426;2023-12-20T01:18:08;6.03;;;3.60;;
56927;SDS011;60850;52.502;13.426;2023-12-20T01:20:35;5.78;;;3.92;;
56927;SDS011;60850;52.502;13.426;2023-12-20T01:23:02;6.38;;;3.97;;
56927;SDS011;60850;52.502;13.426;2023-12-20T01:25:31;7.57;;;4.40;;
56927;SDS011;60850;52.502;13.426;2023-12-20T01:27:58;8.70;;;4.18;;
56927;SDS011;60850;52.502;13.426;2023-12-20T01:30:25;6.10;;;3.90;;
56927;SDS011;60850;52.502;13.426;2023-12-20T01:32:52;6.97;;;3.80;;
56927;SDS011;60850;52.502;13.426;2023-12-20T01:35:19;5.95;;;3.95;;
56927;SDS011;60850;52.502;13.426;2023-12-20T01:37:46;6.47;;;4.13;;
56927;SDS011;60850;52.502;13.426;2023-12-20T01:40:13;6.18;;;3.67;;
56927;SDS011;60850;52.502;13.426;2023-12-20T01:42:42;6.40;;;4.10;;
56927;SDS011;60850;52.502;13.426;2023-12-20T01:45:09;5.65;;;3.75;;
56927;SDS011;60850;52.502;13.426;2023-12-20T01:47:36;6.07;;;4.28;;
56927;SDS011;60850;52.502;13.426;2023-12-20T01:50:04;5.68;;;3.80;;
56927;SDS011;60850;52.502;13.426;2023-12-20T01:52:33;6.20;;;3.83;;
56927;SDS011;60850;52.502;13.426;2023-12-20T01:55:01;4.85;;;3.30;;
56927;SDS011;60850;52.502;13.426;2023-12-20T01:57:31;4.32;;;3.25;;
56927;SDS011;60850;52.502;13.426;2023-12-20T02:00:01;5.35;;;3.25;;
56927;SDS011;60850;52.502;13.426;2023-12-20T02:02:28;5.20;;;3.35;;
56927;SDS011;60850;52.502;13.426;2023-12-20T02:04:56;4.50;;;3.05;;
56927;SDS011;60850;52.502;13.426;2023-12-20T02:07:23;4.35;;;3.13;;
56927;SDS011;60850;52.502;13.426;2023-12-20T02:09:50;4.47;;;2.83;;
56927;SDS011;60850;52.502;13.426;2023-12-20T02:12:18;4.28;;;2.88;;
56927;SDS011;60850;52.502;13.426;2023-12-20T02:14:45;5.22;;;3.50;;
56927;SDS011;60850;52.502;13.426;2023-12-20T02:17:13;4.53;;;2.92;;
56927;SDS011;60850;52.502;13.426;2023-12-20T02:19:41;3.65;;;2.40;;
56927;SDS011;60850;52.502;13.426;2023-12-20T02:22:09;3.88;;;2.58;;
56927;SDS011;60850;52.502;13.426;2023-12-20T02:24:37;4.75;;;2.80;;
56927;SDS011;60850;52.502;13.426;2023-12-20T02:27:04;5.00;;;2.58;;
56927;SDS011;60850;52.502;13.426;2023-12-20T02:29:33;3.65;;;2.58;;
56927;SDS011;60850;52.502;13.426;2023-12-20T02:32:01;4.15;;;2.33;;
56927;SDS011;60850;52.502;13.426;2023-12-20T02:34:29;3.70;;;2.53;;
56927;SDS011;60850;52.502;13.426;2023-12-20T02:36:56;3.47;;;2.35;;
56927;SDS011;60850;52.502;13.426;2023-12-20T02:39:24;2.97;;;2.03;;
56927;SDS011;60850;52.502;13.426;2023-12-20T02:41:51;4.00;;;2.05;;
56927;SDS011;60850;52.502;13.426;2023-12-20T02:44:18;3.80;;;2.22;;
56927;SDS011;60850;52.502;13.426;2023-12-20T02:46:45;3.83;;;2.42;;
56927;SDS011;60850;52.502;13.426;2023-12-20T02:49:12;5.22;;;3.03;;
56927;SDS011;60850;52.502;13.426;2023-12-20T02:51:39;3.33;;;2.40;;
56927;SDS011;60850;52.502;13.426;2023-12-20T02:54:06;4.88;;;3.20;;
56927;SDS011;60850;52.502;13.426;2023-12-20T02:56:34;5.93;;;3.10;;
56927;SDS011;60850;52.502;13.426;2023-12-20T02:59:01;5.22;;;3.33;;
56927;SDS011;60850;52.502;13.426;2023-12-20T03:01:30;5.85;;;3.33;;
56927;SDS011;60850;52.502;13.426;2023-12-20T03:03:58;5.38;;;3.60;;
56927;SDS011;60850;52.502;13.426;2023-12-20T03:06:24;6.03;;;3.20;;
56927;SDS011;60850;52.502;13.426;2023-12-20T03:08:52;6.95;;;3.00;;
56927;SDS011;60850;52.502;13.426;2023-12-20T03:11:18;5.43;;;3.40;;
56927;SDS011;60850;52.502;13.426;2023-12-20T03:13:47;6.88;;;3.30;;
56927;SDS011;60850;52.502;13.426;2023-12-20T03:16:14;5.95;;;3.33;;
56927;SDS011;60850;52.502;13.426;2023-12-20T03:18:42;5.82;;;3.38;;
56927;SDS011;60850;52.502;13.426;2023-12-20T03:21:09;4.72;;;3.03;;
56927;SDS011;60850;52.502;13.426;2023-12-20T03:23:36;7.47;;;3.33;;
56927;SDS011;60850;52.502;13.426;2023-12-20T03:26:03;5.63;;;3.00;;
56927;SDS011;60850;52.502;13.426;2023-12-20T03:28:30;5.18;;;2.72;;
56927;SDS011;60850;52.502;13.426;2023-12-20T03:30:58;8.57;;;3.25;;
56927;SDS011;60850;52.502;13.426;2023-12-20T03:33:26;8.43;;;2.88;;
56927;SDS011;60850;52.502;13.426;2023-12-20T03:35:53;8.60;;;2.97;;
56927;SDS011;60850;52.502;13.426;2023-12-20T03:38:21;11.32;;;2.63;;
56927;SDS011;60850;52.502;13.426;2023-12-20T03:40:49;6.10;;;2.13;;
56927;SDS011;60850;52.502;13.426;2023-12-20T03:43:16;6.55;;;2.40;;
56927;SDS011;60850;52.502;13.426;2023-12-20T03:45:43;6.93;;;1.75;;
56927;SDS011;60850;52.502;13.426;2023-12-20T03:48:11;7.63;;;3.63;;
56927;SDS011;60850;52.502;13.426;2023-12-20T03:50:38;6.57;;;2.20;;
56927;SDS011;60850;52.502;13.426;2023-12-20T03:53:05;7.07;;;2.15;;
56927;SDS011;60850;52.502;13.426;2023-12-20T03:55:32;5.05;;;1.70;;
56927;SDS011;60850;52.502;13.426;2023-12-20T03:57:59;5.70;;;1.45;;
56927;SDS011;60850;52.502;13.426;2023-12-20T04:00:26;6.53;;;2.28;;
56927;SDS011;60850;52.502;13.426;2023-12-20T04:02:53;7.43;;;1.48;;
56927;SDS011;60850;52.502;13.426;2023-12-20T04:05:21;6.82;;;1.60;;
56927;SDS011;60850;52.502;13.426;2023-12-20T04:07:48;7.82;;;1.67;;
56927;SDS011;60850;52.502;13.426;2023-12-20T04:10:15;8.23;;;1.90;;
56927;SDS011;60850;52.502;13.426;2023-12-20T04:12:42;5.95;;;1.45;;
56927;SDS011;60850;52.502;13.426;2023-12-20T04:15:09;10.32;;;1.70;;
56927;SDS011;60850;52.502;13.426;2023-12-20T04:17:37;4.68;;;1.48;;
56927;SDS011;60850;52.502;13.426;2023-12-20T04:20:04;4.80;;;1.63;;
56927;SDS011;60850;52.502;13.426;2023-12-20T04:22:33;10.38;;;1.60;;
56927;SDS011;60850;52.502;13.426;2023-12-20T04:25:00;5.57;;;1.55;;
56927;SDS011;60850;52.502;13.426;2023-12-20T04:27:27;12.98;;;2.83;;
56927;SDS011;60850;52.502;13.426;2023-12-20T04:29:54;5.93;;;1.20;;
56927;SDS011;60850;52.502;13.426;2023-12-20T04:32:21;7.85;;;1.60;;
56927;SDS011;60850;52.502;13.426;2023-12-20T04:34:48;7.22;;;1.40;;
56927;SDS011;60850;52.502;13.426;2023-12-20T04:37:15;5.25;;;1.10;;
56927;SDS011;60850;52.502;13.426;2023-12-20T04:39:43;8.20;;;1.27;;
56927;SDS011;60850;52.502;13.426;2023-12-20T04:42:10;4.88;;;1.73;;
56927;SDS011;60850;52.502;13.426;2023-12-20T04:44:37;10.48;;;1.85;;
56927;SDS011;60850;52.502;13.426;2023-12-20T04:47:04;7.63;;;1.65;;
56927;SDS011;60850;52.502;13.426;2023-12-20T04:49:31;7.93;;;1.98;;
56927;SDS011;60850;52.502;13.426;2023-12-20T04:51:58;7.40;;;1.35;;
56927;SDS011;60850;52.502;13.426;2023-12-20T04:54:25;7.28;;;1.90;;
56927;SDS011;60850;52.502;13.426;2023-12-20T04:56:54;9.70;;;2.70;;
56927;SDS011;60850;52.502;13.426;2023-12-20T04:59:20;10.55;;;1.77;;
56927;SDS011;60850;52.502;13.426;2023-12-20T05:01:48;4.95;;;2.35;;
56927;SDS011;60850;52.502;13.426;2023-12-20T05:04:14;8.15;;;1.85;;
56927;SDS011;60850;52.502;13.426;2023-12-20T05:06:41;5.30;;;2.25;;
56927;SDS011;60850;52.502;13.426;2023-12-20T05:09:08;7.07;;;1.40;;
56927;SDS011;60850;52.502;13.426;2023-12-20T05:11:35;5.10;;;1.70;;
56927;SDS011;60850;52.502;13.426;2023-12-20T05:14:04;6.78;;;1.80;;
56927;SDS011;60850;52.502;13.426;2023-12-20T05:16:31;10.18;;;1.92;;
56927;SDS011;60850;52.502;13.426;2023-12-20T05:18:57;5.70;;;1.75;;
56927;SDS011;60850;52.502;13.426;2023-12-20T05:21:26;8.55;;;1.90;;
56927;SDS011;60850;52.502;13.426;2023-12-20T05:23:53;5.28;;;1.88;;
56927;SDS011;60850;52.502;13.426;2023-12-20T05:26:20;6.95;;;1.30;;
56927;SDS011;60850;52.502;13.426;2023-12-20T05:28:47;8.27;;;1.67;;
56927;SDS011;60850;52.502;13.426;2023-12-20T05:31:15;4.20;;;1.52;;
56927;SDS011;60850;52.502;13.426;2023-12-20T05:33:42;8.85;;;2.17;;
56927;SDS011;60850;52.502;13.426;2023-12-20T05:36:09;5.93;;;2.25;;
56927;SDS011;60850;52.502;13.426;2023-12-20T05:38:38;7.63;;;2.17;;
56927;SDS011;60850;52.502;13.426;2023-12-20T05:41:05;7.95;;;1.33;;
56927;SDS011;60850;52.502;13.426;2023-12-20T05:43:32;8.70;;;1.90;;
56927;SDS011;60850;52.502;13.426;2023-12-20T05:45:59;5.82;;;1.45;;
56927;SDS011;60850;52.502;13.426;2023-12-20T05:48:28;8.88;;;1.38;;
56927;SDS011;60850;52.502;13.426;2023-12-20T05:50:55;11.50;;;1.52;;
56927;SDS011;60850;52.502;13.426;2023-12-20T05:53:22;4.55;;;1.10;;
56927;SDS011;60850;52.502;13.426;2023-12-20T05:55:49;14.88;;;1.77;;
56927;SDS011;60850;52.502;13.426;2023-12-20T05:58:15;9.43;;;1.65;;
56927;SDS011;60850;52.502;13.426;2023-12-20T06:00:43;10.40;;;2.13;;
56927;SDS011;60850;52.502;13.426;2023-12-20T06:03:09;7.15;;;1.73;;
56927;SDS011;60850;52.502;13.426;2023-12-20T06:05:38;4.53;;;2.28;;
56927;SDS011;60850;52.502;13.426;2023-12-20T06:08:05;8.25;;;2.00;;
56927;SDS011;60850;52.502;13.426;2023-12-20T06:10:32;6.63;;;1.70;;
56927;SDS011;60850;52.502;13.426;2023-12-20T06:12:59;10.70;;;2.25;;
56927;SDS011;60850;52.502;13.426;2023-12-20T06:15:26;5.70;;;1.48;;
56927;SDS011;60850;52.502;13.426;2023-12-20T06:17:53;5.32;;;1.55;;
56927;SDS011;60850;52.502;13.426;2023-12-20T06:20:20;9.60;;;1.90;;
56927;SDS011;60850;52.502;13.426;2023-12-20T06:22:48;9.98;;;1.83;;
56927;SDS011;60850;52.502;13.426;2023-12-20T06:25:16;8.82;;;2.28;;
56927;SDS011;60850;52.502;13.426;2023-12-20T06:27:42;18.75;;;3.47;;
56927;SDS011;60850;52.502;13.426;2023-12-20T06:30:10;7.88;;;1.90;;
56927;SDS011;60850;52.502;13.426;2023-12-20T06:32:37;12.30;;;2.08;;
56927;SDS011;60850;52.502;13.426;2023-12-20T06:35:05;8.55;;;2.65;;
56927;SDS011;60850;52.502;13.426;2023-12-20T06:37:32;8.95;;;2.05;;
56927;SDS011;60850;52.502;13.426;2023-12-20T06:40:01;10.93;;;2.30;;
56927;SDS011;60850;52.502;13.426;2023-12-20T06:42:28;9.68;;;1.98;;
56927;SDS011;60850;52.502;13.426;2023-12-20T06:44:55;4.97;;;1.90;;
56927;SDS011;60850;52.502;13.426;2023-12-20T06:47:22;10.65;;;2.28;;
56927;SDS011;60850;52.502;13.426;2023-12-20T06:49:49;8.77;;;2.00;;
56927;SDS011;60850;52.502;13.426;2023-12-20T06:52:16;12.52;;;4.22;;
56927;SDS011;60850;52.502;13.426;2023-12-20T06:54:43;14.57;;;2.55;;
56927;SDS011;60850;52.502;13.426;2023-12-20T06:57:11;8.80;;;2.45;;
56927;SDS011;60850;52.502;13.426;2023-12-20T06:59:38;12.48;;;2.72;;
56927;SDS011;60850;52.502;13.426;2023-12-20T07:02:06;8.68;;;1.95;;
56927;SDS011;60850;52.502;13.426;2023-12-20T07:04:33;8.15;;;2.40;;
56927;SDS011;60850;52.502;13.426;2023-12-20T07:07:00;9.15;;;2.30;;
56927;SDS011;60850;52.502;13.426;2023-12-20T07:09:27;13.65;;;2.20;;
56927;SDS011;60850;52.502;13.426;2023-12-20T07:11:53;10.27;;;2.17;;
56927;SDS011;60850;52.502;13.426;2023-12-20T07:14:22;11.38;;;2.58;;
56927;SDS011;60850;52.502;13.426;2023-12-20T07:16:49;8.60;;;2.03;;
56927;SDS011;60850;52.502;13.426;2023-12-20T07:19:16;8.05;;;2.53;;
56927;SDS011;60850;52.502;13.426;2023-12-20T07:21:42;9.00;;;2.28;;
56927;SDS011;60850;52.502;13.426;2023-12-20T07:24:10;8.25;;;2.25;;
56927;SDS011;60850;52.502;13.426;2023-12-20T07:26:36;6.63;;;2.05;;
56927;SDS011;60850;52.502;13.426;2023-12-20T07:29:05;11.75;;;2.50;;
56927;SDS011;60850;52.502;13.426;2023-12-20T07:31:33;10.63;;;1.80;;
56927;SDS011;60850;52.502;13.426;2023-12-20T07:34:00;10.95;;;2.85;;
56927;SDS011;60850;52.502;13.426;2023-12-20T07:36:27;12.10;;;2.47;;
56927;SDS011;60850;52.502;13.426;2023-12-20T07:38:54;10.73;;;3.00;;
56927;SDS011;60850;52.502;13.426;2023-12-20T07:41:21;8.95;;;2.05;;
56927;SDS011;60850;52.502;13.426;2023-12-20T07:43:49;13.50;;;2.40;;
56927;SDS011;60850;52.502;13.426;2023-12-20T07:46:16;7.20;;;2.28;;
56927;SDS011;60850;52.502;13.426;2023-12-20T07:48:45;8.23;;;2.75;;
56927;SDS011;60850;52.502;13.426;2023-12-20T07:51:12;7.53;;;2.10;;
56927;SDS011;60850;52.502;13.426;2023-12-20T07:53:39;11.48;;;3.05;;
56927;SDS011;60850;52.502;13.426;2023-12-20T07:56:13;13.15;;;2.30;;
56927;SDS011;60850;52.502;13.426;2023-12-20T07:58:40;8.85;;;2.25;;
56927;SDS011;60850;52.502;13.426;2023-12-20T08:01:07;10.80;;;2.33;;
56927;SDS011;60850;52.502;13.426;2023-12-20T08:03:35;11.13;;;2.38;;
56927;SDS011;60850;52.502;13.426;2023-12-20T08:06:03;11.95;;;2.83;;
56927;SDS011;60850;52.502;13.426;2023-12-20T08:08:31;12.02;;;2.33;;
56927;SDS011;60850;52.502;13.426;2023-12-20T08:10:58;13.68;;;3.25;;
56927;SDS011;60850;52.502;13.426;2023-12-20T08:13:25;13.13;;;2.53;;
56927;SDS011;60850;52.502;13.426;2023-12-20T08:15:52;11.05;;;2.97;;
56927;SDS011;60850;52.502;13.426;2023-12-20T08:18:21;9.68;;;2.40;;
56927;SDS011;60850;52.502;13.426;2023-12-20T08:20:48;9.80;;;2.53;;
56927;SDS011;60850;52.502;13.426;2023-12-20T08:23:19;10.30;;;2.20;;
56927;SDS011;60850;52.502;13.426;2023-12-20T08:25:47;9.68;;;2.83;;
56927;SDS011;60850;52.502;13.426;2023-12-20T08:28:14;5.05;;;1.90;;
56927;SDS011;60850;52.502;13.426;2023-12-20T08:30:41;7.35;;;1.85;;
56927;SDS011;60850;52.502;13.426;2023-12-20T08:33:08;5.35;;;1.80;;
56927;SDS011;60850;52.502;13.426;2023-12-20T08:35:38;7.05;;;2.00;;
56927;SDS011;60850;52.502;13.426;2023-12-20T08:38:05;4.30;;;1.50;;
56927;SDS011;60850;52.502;13.426;2023-12-20T08:40:33;8.82;;;2.35;;
56927;SDS011;60850;52.502;13.426;2023-12-20T08:43:01;7.70;;;1.70;;
56927;SDS011;60850;52.502;13.426;2023-12-20T08:45:28;6.53;;;1.45;;
56927;SDS011;60850;52.502;13.426;2023-12-20T08:47:55;11.95;;;1.90;;
56927;SDS011;60850;52.502;13.426;2023-12-20T08:50:22;5.85;;;2.20;;
56927;SDS011;60850;52.502;13.426;2023-12-20T08:52:49;8.77;;;1.85;;
56927;SDS011;60850;52.502;13.426;2023-12-20T08:55:16;10.18;;;1.70;;
56927;SDS011;60850;52.502;13.426;2023-12-20T08:57:45;10.25;;;1.73;;
56927;SDS011;60850;52.502;13.426;2023-12-20T09:00:12;12.02;;;1.75;;
56927;SDS011;60850;52.502;13.426;2023-12-20T09:02:40;8.48;;;1.95;;
56927;SDS011;60850;52.502;13.426;2023-12-20T09:05:07;9.50;;;1.98;;
56927;SDS011;60850;52.502;13.426;2023-12-20T09:07:36;9.68;;;2.53;;
56927;SDS011;60850;52.502;13.426;2023-12-20T09:10:03;10.45;;;1.83;;
56927;SDS011;60850;52.502;13.426;2023-12-20T09:12:30;6.93;;;1.52;;
56927;SDS011;60850;52.502;13.426;2023-12-20T09:14:58;9.13;;;2.13;;
56927;SDS011;60850;52.502;13.426;2023-12-20T09:17:28;8.35;;;1.70;;
56927;SDS011;60850;52.502;13.426;2023-12-20T09:19:54;9.65;;;1.95;;
56927;SDS011;60850;52.502;13.426;2023-12-20T09:22:22;4.90;;;1.60;;
56927;SDS011;60850;52.502;13.426;2023-12-20T09:24:48;6.03;;;1.60;;
56927;SDS011;60850;52.502;13.426;2023-12-20T09:27:15;12.98;;;1.88;;
56927;SDS011;60850;52.502;13.426;2023-12-20T09:29:42;7.07;;;1.55;;
56927;SDS011;60850;52.502;13.426;2023-12-20T09:32:11;8.48;;;1.90;;
56927;SDS011;60850;52.502;13.426;2023-12-20T09:34:38;6.97;;;2.03;;
56927;SDS011;60850;52.502;13.426;2023-12-20T09:37:07;11.38;;;1.73;;
56927;SDS011;60850;52.502;13.426;2023-12-20T09:39:34;8.63;;;1.67;;
56927;SDS011;60850;52.502;13.426;2023-12-20T09:42:01;4.90;;;1.42;;
56927;SDS011;60850;52.502;13.426;2023-12-20T09:44:32;6.43;;;2.15;;
56927;SDS011;60850;52.502;13.426;2023-12-20T09:47:02;6.80;;;1.50;;
56927;SDS011;60850;52.502;13.426;2023-12-20T09:49:31;6.47;;;1.25;;
56927;SDS011;60850;52.502;13.426;2023-12-20T09:51:59;5.53;;;1.60;;
56927;SDS011;60850;52.502;13.426;2023-12-20T09:54:28;6.13;;;1.90;;
56927;SDS011;60850;52.502;13.426;2023-12-20T09:57:01;8.15;;;1.33;;
56927;SDS011;60850;52.502;13.426;2023-12-20T09:59:28;8.15;;;1.75;;
56927;SDS011;60850;52.502;13.426;2023-12-20T10:01:55;7.75;;;2.25;;
56927;SDS011;60850;52.502;13.426;2023-12-20T10:04:23;8.98;;;1.88;;
56927;SDS011;60850;52.502;13.426;2023-12-20T10:06:52;7.35;;;1.83;;
56927;SDS011;60850;52.502;13.426;2023-12-20T10:09:21;7.15;;;1.67;;
56927;SDS011;60850;52.502;13.426;2023-12-20T10:11:59;9.50;;;1.60;;
56927;SDS011;60850;52.502;13.426;2023-12-20T10:14:26;11.80;;;2.38;;
56927;SDS011;60850;52.502;13.426;2023-12-20T10:16:53;11.95;;;3.03;;
56927;SDS011;60850;52.502;13.426;2023-12-20T10:19:20;7.00;;;2.33;;
56927;SDS011;60850;52.502;13.426;2023-12-20T10:21:47;7.18;;;2.30;;
56927;SDS011;60850;52.502;13.426;2023-12-20T10:24:17;9.35;;;2.15;;
56927;SDS011;60850;52.502;13.426;2023-12-20T10:26:45;11.68;;;2.22;;
56927;SDS011;60850;52.502;13.426;2023-12-20T10:29:11;8.15;;;1.85;;
56927;SDS011;60850;52.502;13.426;2023-12-20T10:31:39;8.23;;;2.38;;
56927;SDS011;60850;52.502;13.426;2023-12-20T10:34:07;7.90;;;3.22;;
56927;SDS011;60850;52.502;13.426;2023-12-20T10:36:34;6.95;;;1.92;;
56927;SDS011;60850;52.502;13.426;2023-12-20T10:39:01;7.95;;;1.80;;
56927;SDS011;60850;52.502;13.426;2023-12-20T10:41:31;8.60;;;2.50;;
56927;SDS011;60850;52.502;13.426;2023-12-20T10:44:00;10.90;;;2.53;;
56927;SDS011;60850;52.502;13.426;2023-12-20T10:46:29;10.38;;;2.53;;
56927;SDS011;60850;52.502;13.426;2023-12-20T10:48:57;10.18;;;2.72;;
56927;SDS011;60850;52.502;13.426;2023-12-20T10:51:25;4.50;;;1.83;;
56927;SDS011;60850;52.502;13.426;2023-12-20T10:53:54;8.60;;;1.80;;
56927;SDS011;60850;52.502;13.426;2023-12-20T10:56:22;8.50;;;2.97;;
56927;SDS011;60850;52.502;13.426;2023-12-20T10:58:51;6.10;;;2.05;;
56927;SDS011;60850;52.502;13.426;2023-12-20T11:01:19;11.27;;;2.17;;
56927;SDS011;60850;52.502;13.426;2023-12-20T11:03:48;9.40;;;2.55;;
56927;SDS011;60850;52.502;13.426;2023-12-20T11:06:20;8.27;;;2.13;;
56927;SDS011;60850;52.502;13.426;2023-12-20T11:09:02;12.73;;;2.88;;
56927;SDS011;60850;52.502;13.426;2023-12-20T11:11:41;10.35;;;1.98;;
56927;SDS011;60850;52.502;13.426;2023-12-20T11:14:22;14.07;;;2.30;;
56927;SDS011;60850;52.502;13.426;2023-12-20T11:17:05;11.98;;;2.70;;
56927;SDS011;60850;52.502;13.426;2023-12-20T11:19:32;11.93;;;3.20;;
56927;SDS011;60850;52.502;13.426;2023-12-20T11:21:59;10.32;;;2.17;;
56927;SDS011;60850;52.502;13.426;2023-12-20T11:24:26;9.48;;;2.53;;
56927;SDS011;60850;52.502;13.426;2023-12-20T11:26:55;9.88;;;2.08;;
56927;SDS011;60850;52.502;13.426;2023-12-20T11:29:33;10.25;;;2.28;;
56927;SDS011;60850;52.502;13.426;2023-12-20T11:32:02;7.47;;;2.10;;
56927;SDS011;60850;52.502;13.426;2023-12-20T11:34:33;9.40;;;2.53;;
56927;SDS011;60850;52.502;13.426;2023-12-20T11:37:02;13.27;;;2.97;;
56927;SDS011;60850;52.502;13.426;2023-12-20T11:39:29;5.22;;;2.05;;
56927;SDS011;60850;52.502;13.426;2023-12-20T11:41:57;9.75;;;2.40;;
56927;SDS011;60850;52.502;13.426;2023-12-20T11:44:31;6.90;;;2.55;;
56927;SDS011;60850;52.502;13.426;2023-12-20T11:47:00;12.00;;;2.67;;
56927;SDS011;60850;52.502;13.426;2023-12-20T11:49:27;15.77;;;2.90;;
56927;SDS011;60850;52.502;13.426;2023-12-20T11:51:54;5.97;;;2.13;;
56927;SDS011;60850;52.502;13.426;2023-12-20T11:54:21;13.27;;;2.47;;
56927;SDS011;60850;52.502;13.426;2023-12-20T11:56:48;7.22;;;2.05;;
56927;SDS011;60850;52.502;13.426;2023-12-20T11:59:15;9.55;;;2.35;;
56927;SDS011;60850;52.502;13.426;2023-12-20T12:01:47;8.77;;;2.20;;
56927;SDS011;60850;52.502;13.426;2023-12-20T12:04:16;8.13;;;2.70;;
56927;SDS011;60850;52.502;13.426;2023-12-20T12:06:44;6.22;;;2.03;;
56927;SDS011;60850;52.502;13.426;2023-12-20T12:09:11;9.70;;;2.05;;
56927;SDS011;60850;52.502;13.426;2023-12-20T12:11:38;6.68;;;2.10;;
56927;SDS011;60850;52.502;13.426;2023-12-20T12:14:06;10.90;;;2.80;;
56927;SDS011;60850;52.502;13.426;2023-12-20T12:16:34;10.43;;;1.75;;
56927;SDS011;60850;52.502;13.426;2023-12-20T12:19:01;12.60;;;1.98;;
56927;SDS011;60850;52.502;13.426;2023-12-20T12:21:29;7.97;;;1.90;;
56927;SDS011;60850;52.502;13.426;2023-12-20T12:24:05;8.82;;;1.95;;
56927;SDS011;60850;52.502;13.426;2023-12-20T12:26:33;8.02;;;2.95;;
56927;SDS011;60850;52.502;13.426;2023-12-20T12:29:00;10.60;;;3.72;;
56927;SDS011;60850;52.502;13.426;2023-12-20T12:31:28;6.50;;;2.15;;
56927;SDS011;60850;52.502;13.426;2023-12-20T12:33:55;8.02;;;1.90;;
56927;SDS011;60850;52.502;13.426;2023-12-20T12:36:23;7.82;;;2.55;;
56927;SDS011;60850;52.502;13.426;2023-12-20T12:38:51;9.27;;;2.80;;
56927;SDS011;60850;52.502;13.426;2023-12-20T12:41:18;10.98;;;2.80;;
56927;SDS011;60850;52.502;13.426;2023-12-20T12:43:45;11.85;;;2.88;;
56927;SDS011;60850;52.502;13.426;2023-12-20T12:46:12;7.53;;;2.70;;
56927;SDS011;60850;52.502;13.426;2023-12-20T12:48:39;9.60;;;2.53;;
56927;SDS011;60850;52.502;13.426;2023-12-20T12:51:06;8.07;;;2.45;;
56927;SDS011;60850;52.502;13.426;2023-12-20T12:53:38;9.18;;;3.70;;
56927;SDS011;60850;52.502;13.426;2023-12-20T12:56:07;7.25;;;2.20;;
56927;SDS011;60850;52.502;13.426;2023-12-20T12:58:34;7.22;;;2.30;;
56927;SDS011;60850;52.502;13.426;2023-12-20T13:01:02;10.90;;;2.63;;
56927;SDS011;60850;52.502;13.426;2023-12-20T13:03:29;8.82;;;2.92;;
56927;SDS011;60850;52.502;13.426;2023-12-20T13:05:57;10.32;;;2.67;;
56927;SDS011;60850;52.502;13.426;2023-12-20T13:08:28;5.00;;;2.25;;
56927;SDS011;60850;52.502;13.426;2023-12-20T13:10:56;9.90;;;2.88;;
56927;SDS011;60850;52.502;13.426;2023-12-20T13:13:27;8.52;;;2.50;;
56927;SDS011;60850;52.502;13.426;2023-12-20T13:15:54;9.60;;;3.10;;
56927;SDS011;60850;52.502;13.426;2023-12-20T13:18:22;8.40;;;3.58;;
56927;SDS011;60850;52.502;13.426;2023-12-20T13:20:51;7.18;;;2.85;;
56927;SDS011;60850;52.502;13.426;2023-12-20T13:23:18;12.55;;;4.18;;
56927;SDS011;60850;52.502;13.426;2023-12-20T13:25:45;12.35;;;3.35;;
56927;SDS011;60850;52.502;13.426;2023-12-20T13:28:13;4.28;;;2.03;;
56927;SDS011;60850;52.502;13.426;2023-12-20T13:30:42;6.40;;;1.73;;
56927;SDS011;60850;52.502;13.426;2023-12-20T13:33:08;5.38;;;1.60;;
56927;SDS011;60850;52.502;13.426;2023-12-20T13:35:36;5.68;;;1.65;;
56927;SDS011;60850;52.502;13.426;2023-12-20T13:38:04;4.03;;;1.40;;
56927;SDS011;60850;52.502;13.426;2023-12-20T13:40:33;5.55;;;1.52;;
56927;SDS011;60850;52.502;13.426;2023-12-20T13:43:01;3.38;;;1.15;;
56927;SDS011;60850;52.502;13.426;2023-12-20T13:45:29;2.00;;;0.80;;
56927;SDS011;60850;52.502;13.426;2023-12-20T13:47:57;4.13;;;1.00;;
56927;SDS011;60850;52.502;13.426;2023-12-20T13:50:25;1.33;;;0.80;;
56927;SDS011;60850;52.502;13.426;2023-12-20T13:52:53;5.07;;;1.00;;
56927;SDS011;60850;52.502;13.426;2023-12-20T13:55:20;2.75;;;1.15;;
56927;SDS011;60850;52.502;13.426;2023-12-20T13:57:50;3.08;;;1.10;;
56927;SDS011;60850;52.502;13.426;2023-12-20T14:00:18;4.13;;;1.35;;
56927;SDS011;60850;52.502;13.426;2023-12-20T14:02:45;5.32;;;1.73;;
56927;SDS011;60850;52.502;13.426;2023-12-20T14:05:15;7.80;;;1.70;;
56927;SDS011;60850;52.502;13.426;2023-12-20T14:07:43;3.97;;;1.55;;
56927;SDS011;60850;52.502;13.426;2023-12-20T14:10:11;5.13;;;1.73;;
56927;SDS011;60850;52.502;13.426;2023-12-20T14:12:38;3.28;;;1.40;;
56927;SDS011;60850;52.502;13.426;2023-12-20T14:15:06;7.25;;;1.42;;
56927;SDS011;60850;52.502;13.426;2023-12-20T14:17:36;3.88;;;1.20;;
56927;SDS011;60850;52.502;13.426;2023-12-20T14:20:04;6.97;;;2.03;;
56927;SDS011;60850;52.502;13.426;2023-12-20T14:22:34;4.00;;;1.40;;
56927;SDS011;60850;52.502;13.426;2023-12-20T14:25:08;3.30;;;1.20;;
56927;SDS011;60850;52.502;13.426;2023-12-20T14:27:36;4.22;;;1.52;;
56927;SDS011;60850;52.502;13.426;2023-12-20T14:30:03;2.25;;;0.70;;
56927;SDS011;60850;52.502;13.426;2023-12-20T14:32:34;3.33;;;1.15;;
56927;SDS011;60850;52.502;13.426;2023-12-20T14:35:04;2.25;;;0.90;;